createdAt,value
2019-03-25T00:00:59.006Z,17.00
2019-03-25T00:03:29.036Z,21.30
2019-03-25T00:05:57.356Z,18.83
2019-03-25T00:08:25.615Z,16.50
2019-03-25T00:10:53.878Z,15.97
2019-03-25T00:13:22.115Z,20.30
2019-03-25T00:15:50.362Z,15.57
2019-03-25T00:18:18.619Z,19.47
2019-03-25T00:20:46.858Z,16.90
2019-03-25T00:23:15.113Z,14.83
2019-03-25T00:25:43.385Z,24.30
2019-03-25T00:28:13.817Z,16.87
2019-03-25T00:30:41.951Z,24.77
2019-03-25T00:33:10.307Z,14.87
2019-03-25T00:35:38.535Z,18.17
2019-03-25T00:38:06.779Z,31.13
2019-03-25T00:40:35.208Z,17.27
2019-03-25T00:43:03.453Z,32.93
2019-03-25T00:45:31.715Z,24.07
2019-03-25T00:47:59.979Z,26.03
2019-03-25T00:50:28.246Z,17.00
2019-03-25T00:52:56.527Z,27.00
2019-03-25T00:55:25.171Z,25.57
2019-03-25T00:57:53.410Z,21.43
2019-03-25T01:00:21.659Z,21.97
2019-03-25T01:02:50.215Z,30.33
2019-03-25T01:05:18.528Z,17.70
2019-03-25T01:07:46.766Z,29.43
2019-03-25T01:10:15.106Z,25.77
2019-03-25T01:12:43.372Z,30.27
2019-03-25T01:15:11.616Z,26.70
2019-03-25T01:17:39.883Z,20.33
2019-03-25T01:20:08.165Z,22.70
2019-03-25T01:22:36.459Z,26.70
2019-03-25T01:25:06.570Z,23.20
2019-03-25T01:27:34.798Z,20.93
2019-03-25T01:30:03.710Z,19.37
2019-03-25T01:32:31.967Z,27.23
2019-03-25T01:35:00.393Z,19.60
2019-03-25T01:37:28.732Z,24.37
2019-03-25T01:39:57.147Z,20.83
2019-03-25T01:42:25.398Z,17.80
2019-03-25T01:44:56.751Z,20.87
2019-03-25T01:47:25.528Z,26.43
2019-03-25T01:49:53.768Z,20.30
2019-03-25T01:52:22.016Z,22.97
2019-03-25T01:54:50.310Z,23.63
2019-03-25T01:57:18.544Z,17.53
2019-03-25T01:59:47.099Z,17.47
2019-03-25T02:02:16.858Z,24.50
2019-03-25T02:04:45.103Z,21.73
2019-03-25T02:07:13.348Z,22.23
2019-03-25T02:09:41.610Z,20.23
2019-03-25T02:12:09.855Z,23.23
2019-03-25T02:14:38.096Z,24.10
2019-03-25T02:17:06.352Z,12.50
2019-03-25T02:19:34.616Z,19.73
2019-03-25T02:22:02.836Z,19.03
2019-03-25T02:24:31.379Z,14.60
2019-03-25T02:26:59.624Z,10.77
2019-03-25T02:29:27.884Z,8.40
2019-03-25T02:31:56.209Z,11.10
2019-03-25T02:34:24.455Z,12.30
2019-03-25T02:36:52.967Z,7.10
2019-03-25T02:39:21.279Z,14.77
2019-03-25T02:41:49.564Z,8.27
2019-03-25T02:44:17.855Z,13.13
2019-03-25T02:46:46.791Z,12.60
2019-03-25T02:49:15.033Z,7.47
2019-03-25T02:51:43.259Z,9.53
2019-03-25T02:54:11.520Z,11.50
2019-03-25T02:56:39.760Z,15.70
2019-03-25T02:59:07.992Z,6.80
2019-03-25T03:01:36.574Z,13.73
2019-03-25T03:04:04.995Z,12.90
2019-03-25T03:06:33.238Z,12.27
2019-03-25T03:09:01.566Z,16.80
2019-03-25T03:11:29.787Z,4.93
2019-03-25T03:13:58.036Z,7.73
2019-03-25T03:16:26.365Z,11.30
2019-03-25T03:18:54.600Z,4.67
2019-03-25T03:21:22.848Z,11.80
2019-03-25T03:23:51.371Z,10.40
2019-03-25T03:26:19.617Z,7.33
2019-03-25T03:28:47.868Z,13.83
2019-03-25T03:31:16.218Z,6.13
2019-03-25T03:33:44.463Z,14.47
2019-03-25T03:36:12.728Z,7.73
2019-03-25T03:38:40.979Z,17.10
2019-03-25T03:41:09.229Z,12.37
2019-03-25T03:43:37.470Z,7.53
2019-03-25T03:46:05.827Z,9.40
2019-03-25T03:48:34.063Z,15.80
2019-03-25T03:51:02.300Z,6.40
2019-03-25T03:53:30.992Z,12.83
2019-03-25T03:56:11.903Z,10.00
2019-03-25T03:58:29.204Z,4.30
2019-03-25T04:00:57.764Z,7.90
2019-03-25T04:03:25.997Z,6.53
2019-03-25T04:05:54.466Z,9.93
2019-03-25T04:08:22.727Z,6.00
2019-03-25T04:10:50.959Z,9.90
2019-03-25T04:13:19.200Z,5.73
2019-03-25T04:15:47.501Z,6.17
2019-03-25T04:18:15.735Z,12.60
2019-03-25T04:20:43.968Z,7.33
2019-03-25T04:23:12.330Z,7.77
2019-03-25T04:25:40.568Z,14.03
2019-03-25T04:28:08.799Z,7.03
2019-03-25T04:30:37.068Z,10.17
2019-03-25T04:33:05.304Z,5.97
2019-03-25T04:35:33.544Z,9.57
2019-03-25T04:38:01.797Z,5.13
2019-03-25T04:40:30.035Z,9.20
2019-03-25T04:42:58.287Z,11.90
2019-03-25T04:45:26.539Z,7.60
2019-03-25T04:47:54.778Z,10.40
2019-03-25T04:50:23.015Z,14.20
2019-03-25T04:52:51.351Z,10.10
2019-03-25T04:55:19.596Z,10.23
2019-03-25T04:57:47.833Z,6.33
2019-03-25T05:00:19.931Z,10.77
2019-03-25T05:02:48.544Z,14.73
2019-03-25T05:05:16.793Z,15.97
2019-03-25T05:07:45.915Z,15.50
2019-03-25T05:10:14.159Z,14.63
2019-03-25T05:12:42.398Z,10.63
2019-03-25T05:15:10.736Z,10.53
2019-03-25T05:17:38.975Z,14.93
2019-03-25T05:20:07.224Z,7.37
2019-03-25T05:22:36.478Z,26.33
2019-03-25T05:25:06.515Z,10.47
2019-03-25T05:27:35.627Z,14.00
2019-03-25T05:30:07.901Z,21.20
2019-03-25T05:32:36.130Z,10.90
2019-03-25T05:35:06.187Z,10.03
2019-03-25T05:37:34.522Z,13.10
2019-03-25T05:40:02.763Z,9.53
2019-03-25T05:42:31.018Z,13.53
2019-03-25T05:44:59.701Z,13.73
2019-03-25T05:47:27.939Z,12.93
2019-03-25T05:49:56.698Z,11.03
2019-03-25T05:52:24.950Z,17.43
2019-03-25T05:54:53.197Z,12.30
2019-03-25T05:57:21.443Z,15.90
2019-03-25T05:59:49.923Z,15.80
2019-03-25T06:02:18.159Z,7.70
2019-03-25T06:04:46.646Z,11.03
2019-03-25T06:07:14.991Z,6.10
2019-03-25T06:09:43.236Z,4.23
2019-03-25T06:12:11.487Z,14.10
2019-03-25T06:14:39.765Z,10.33
2019-03-25T06:17:08.002Z,16.57
2019-03-25T06:19:36.243Z,15.30
2019-03-25T06:22:04.870Z,16.10
2019-03-25T06:24:33.143Z,13.23
2019-03-25T06:27:01.384Z,20.93
2019-03-25T06:29:31.987Z,16.83
2019-03-25T06:31:59.619Z,11.63
2019-03-25T06:34:27.858Z,15.27
2019-03-25T06:36:56.486Z,15.13
2019-03-25T06:39:24.813Z,14.63
2019-03-25T06:41:53.076Z,16.00
2019-03-25T06:44:21.335Z,10.73
2019-03-25T06:46:50.606Z,12.63
2019-03-25T06:49:18.842Z,6.97
2019-03-25T06:51:47.151Z,8.60
2019-03-25T06:54:15.398Z,32.63
2019-03-25T06:56:43.658Z,20.57
2019-03-25T06:59:12.360Z,8.63
2019-03-25T07:01:40.595Z,8.80
2019-03-25T07:04:08.838Z,6.10
2019-03-25T07:06:37.413Z,12.80
2019-03-25T07:09:07.129Z,17.23
2019-03-25T07:11:36.435Z,10.43
2019-03-25T07:14:05.126Z,14.50
2019-03-25T07:16:33.373Z,12.80
2019-03-25T07:19:01.625Z,11.63
2019-03-25T07:21:29.890Z,10.17
2019-03-25T07:23:58.136Z,5.77
2019-03-25T07:26:26.370Z,10.20
2019-03-25T07:28:54.638Z,8.20
2019-03-25T07:31:22.888Z,6.50
2019-03-25T07:33:51.114Z,9.50
2019-03-25T07:36:20.320Z,6.93
2019-03-25T07:38:48.604Z,7.73
2019-03-25T07:41:17.207Z,8.40
2019-03-25T07:43:45.579Z,4.13
2019-03-25T07:46:14.385Z,7.60
2019-03-25T07:48:42.647Z,10.43
2019-03-25T07:51:11.662Z,13.33
2019-03-25T07:53:39.901Z,9.57
2019-03-25T07:56:08.913Z,10.80
2019-03-25T07:58:37.245Z,7.20
2019-03-25T08:01:05.492Z,7.17
2019-03-25T08:03:33.752Z,6.00
2019-03-25T08:06:02.082Z,9.17
2019-03-25T08:08:33.337Z,8.13
2019-03-25T08:11:01.579Z,10.13
2019-03-25T08:13:30.737Z,8.20
2019-03-25T08:15:58.970Z,8.07
2019-03-25T08:18:27.559Z,9.07
2019-03-25T08:20:56.306Z,7.87
2019-03-25T08:23:28.124Z,11.60
2019-03-25T08:25:56.366Z,9.27
2019-03-25T08:28:24.728Z,9.83
2019-03-25T08:30:52.967Z,10.27
2019-03-25T08:33:21.254Z,7.43
2019-03-25T08:35:49.498Z,8.90
2019-03-25T08:38:20.507Z,4.80
2019-03-25T08:40:50.399Z,11.60
2019-03-25T08:43:19.158Z,8.07
2019-03-25T08:45:50.363Z,7.90
2019-03-25T08:48:18.594Z,11.53
2019-03-25T08:50:48.874Z,4.23
2019-03-25T08:53:20.621Z,4.67
2019-03-25T08:55:48.863Z,8.53
2019-03-25T08:58:17.117Z,10.83
2019-03-25T09:00:45.398Z,5.73
2019-03-25T09:03:13.936Z,8.87
2019-03-25T09:05:42.188Z,8.10
2019-03-25T09:08:10.437Z,4.93
2019-03-25T09:10:38.681Z,3.03
2019-03-25T09:13:06.926Z,5.23
2019-03-25T09:15:37.227Z,5.70
2019-03-25T09:18:05.499Z,3.23
2019-03-25T09:20:34.072Z,9.20
2019-03-25T09:23:02.313Z,7.47
2019-03-25T09:25:30.550Z,3.33
2019-03-25T09:27:58.847Z,2.43
2019-03-25T09:30:53.320Z,3.37
2019-03-25T09:33:23.270Z,5.90
2019-03-25T09:35:51.582Z,3.77
2019-03-25T09:38:19.826Z,2.53
2019-03-25T09:40:48.170Z,3.87
2019-03-25T09:43:16.415Z,2.27
2019-03-25T09:45:44.653Z,4.87
2019-03-25T09:48:13.152Z,7.90
2019-03-25T09:50:41.444Z,8.20
2019-03-25T09:53:09.722Z,37.03
2019-03-25T09:55:37.980Z,4.00
2019-03-25T09:58:06.198Z,5.30
2019-03-25T10:00:34.700Z,4.37
2019-03-25T10:03:02.943Z,3.20
2019-03-25T10:05:31.188Z,3.70
2019-03-25T10:07:59.447Z,3.23
2019-03-25T10:10:27.737Z,6.83
2019-03-25T10:12:56.859Z,6.23
2019-03-25T10:15:25.206Z,5.33
2019-03-25T10:18:07.375Z,8.50
2019-03-25T10:20:38.127Z,5.73
2019-03-25T10:23:08.594Z,7.17
2019-03-25T10:25:36.838Z,8.13
2019-03-25T10:28:05.123Z,5.33
2019-03-25T10:30:33.506Z,5.83
2019-03-25T10:33:01.739Z,5.80
2019-03-25T10:35:29.975Z,8.17
2019-03-25T10:37:58.524Z,5.33
2019-03-25T10:40:26.763Z,4.57
2019-03-25T10:42:55.005Z,5.90
2019-03-25T10:45:23.284Z,5.07
2019-03-25T10:47:51.535Z,6.40
2019-03-25T10:50:19.768Z,2.93
2019-03-25T10:52:48.031Z,2.90
2019-03-25T10:55:20.904Z,7.77
2019-03-25T10:57:49.223Z,5.37
2019-03-25T11:00:17.567Z,8.23
2019-03-25T11:02:45.852Z,6.07
2019-03-25T11:05:14.100Z,5.17
2019-03-25T11:10:11.070Z,6.27
2019-03-25T11:12:39.318Z,5.20
2019-03-25T11:15:08.544Z,4.83
2019-03-25T11:17:36.962Z,5.23
2019-03-25T11:20:07.039Z,5.30
2019-03-25T11:22:35.787Z,7.97
2019-03-25T11:25:06.810Z,5.73
2019-03-25T11:27:35.078Z,11.10
2019-03-25T11:30:05.726Z,7.60
2019-03-25T11:32:34.147Z,5.67
2019-03-25T11:35:02.389Z,8.30
2019-03-25T11:37:30.957Z,3.80
2019-03-25T11:39:59.258Z,6.30
2019-03-25T11:42:27.511Z,9.07
2019-03-25T11:44:55.868Z,6.70
2019-03-25T11:47:24.374Z,7.10
2019-03-25T11:49:52.620Z,4.23
2019-03-25T11:52:20.942Z,6.63
2019-03-25T11:54:49.178Z,4.50
2019-03-25T11:57:17.434Z,5.07
2019-03-25T11:59:45.991Z,6.50
2019-03-25T12:02:17.688Z,4.30
2019-03-25T12:04:44.231Z,5.07
2019-03-25T12:07:12.516Z,3.50
2019-03-25T12:09:41.628Z,3.27
2019-03-25T12:12:09.986Z,3.90
2019-03-25T12:14:38.253Z,3.53
2019-03-25T12:17:06.498Z,5.37
2019-03-25T12:19:34.740Z,5.53
2019-03-25T12:22:03.392Z,3.77
2019-03-25T12:24:31.636Z,4.90
2019-03-25T12:26:59.886Z,6.17
2019-03-25T12:29:30.428Z,3.30
2019-03-25T12:31:58.194Z,6.63
2019-03-25T12:34:26.567Z,7.13
2019-03-25T12:36:54.983Z,4.60
2019-03-25T12:39:23.256Z,5.07
2019-03-25T12:41:51.492Z,5.40
2019-03-25T12:44:19.778Z,3.50
2019-03-25T12:46:48.324Z,7.53
2019-03-25T12:49:16.575Z,9.33
2019-03-25T12:51:45.288Z,5.97
2019-03-25T12:54:13.547Z,4.27
2019-03-25T12:56:42.351Z,4.63
2019-03-25T12:59:10.658Z,2.57
2019-03-25T13:01:38.894Z,3.57
2019-03-25T13:04:07.135Z,4.63
2019-03-25T13:06:35.408Z,4.93
2019-03-25T13:09:05.351Z,7.47
2019-03-25T13:11:33.591Z,5.00
2019-03-25T13:14:01.849Z,6.07
2019-03-25T13:16:30.084Z,3.70
2019-03-25T13:18:58.345Z,5.47
2019-03-25T13:21:26.870Z,7.60
2019-03-25T13:23:55.699Z,5.03
2019-03-25T13:26:23.965Z,7.27
2019-03-25T13:29:02.041Z,6.93
2019-03-25T13:31:24.171Z,4.70
2019-03-25T13:33:52.517Z,4.87
2019-03-25T13:36:20.773Z,5.10
2019-03-25T13:38:49.044Z,5.60
2019-03-25T13:41:17.287Z,1.93
2019-03-25T13:43:45.567Z,3.10
2019-03-25T13:46:13.815Z,7.53
2019-03-25T13:48:42.083Z,11.70
2019-03-25T13:51:10.511Z,5.23
2019-03-25T13:53:38.754Z,4.43
2019-03-25T13:56:10.146Z,3.43
2019-03-25T13:58:38.454Z,4.30
2019-03-25T14:01:08.373Z,5.00
2019-03-25T14:03:36.616Z,4.40
2019-03-25T14:06:06.513Z,2.93
2019-03-25T14:08:37.250Z,2.97
2019-03-25T14:11:05.503Z,2.43
2019-03-25T14:13:33.816Z,3.70
2019-03-25T14:16:02.071Z,3.50
2019-03-25T14:18:30.318Z,3.03
2019-03-25T14:20:58.608Z,7.07
2019-03-25T14:23:27.166Z,5.23
2019-03-25T14:25:55.503Z,6.20
2019-03-25T14:28:23.792Z,5.20
2019-03-25T14:30:52.305Z,4.67
2019-03-25T14:33:20.558Z,4.27
2019-03-25T14:35:48.802Z,3.90
2019-03-25T14:38:17.050Z,5.40
2019-03-25T14:40:45.298Z,4.83
2019-03-25T14:43:13.570Z,4.93
2019-03-25T14:45:41.819Z,7.73
2019-03-25T14:48:10.067Z,8.17
2019-03-25T14:50:38.818Z,7.63
2019-03-25T14:53:07.051Z,7.27
2019-03-25T14:55:37.956Z,4.10
2019-03-25T14:58:06.215Z,7.97
2019-03-25T15:00:34.461Z,5.70
2019-03-25T15:03:02.725Z,6.57
2019-03-25T15:05:30.968Z,4.00
2019-03-25T15:07:59.521Z,7.60
2019-03-25T15:10:27.762Z,6.53
2019-03-25T15:12:56.323Z,3.30
2019-03-25T15:15:24.576Z,6.07
2019-03-25T15:17:52.827Z,8.53
2019-03-25T15:20:21.165Z,6.03
2019-03-25T15:22:49.404Z,9.70
2019-03-25T15:25:17.645Z,6.07
2019-03-25T15:27:46.722Z,5.87
2019-03-25T15:30:14.981Z,4.60
2019-03-25T15:32:43.214Z,7.07
2019-03-25T15:35:11.818Z,3.67
2019-03-25T15:37:40.063Z,4.27
2019-03-25T15:40:09.810Z,3.60
2019-03-25T15:42:38.485Z,3.43
2019-03-25T15:45:07.191Z,6.60
2019-03-25T15:47:35.480Z,4.63
2019-03-25T15:50:06.123Z,5.97
2019-03-25T15:52:34.364Z,4.93
2019-03-25T15:55:02.677Z,8.70
2019-03-25T15:57:31.424Z,7.20
2019-03-25T15:59:59.676Z,7.53
2019-03-25T16:02:27.921Z,4.90
2019-03-25T16:04:56.546Z,6.03
2019-03-25T16:07:24.789Z,5.80
2019-03-25T16:09:53.064Z,5.67
2019-03-25T16:12:21.305Z,7.27
2019-03-25T16:14:49.841Z,4.63
2019-03-25T16:17:18.083Z,4.83
2019-03-25T16:19:57.777Z,6.83
2019-03-25T16:22:26.044Z,3.27
2019-03-25T16:24:54.349Z,3.97
2019-03-25T16:27:22.675Z,7.07
2019-03-25T16:29:51.167Z,3.73
2019-03-25T16:32:19.410Z,7.60
2019-03-25T16:34:47.829Z,7.80
2019-03-25T16:37:16.069Z,5.00
2019-03-25T16:39:44.329Z,2.50
2019-03-25T16:42:12.687Z,7.03
2019-03-25T16:44:40.987Z,4.10
2019-03-25T16:47:09.227Z,3.23
2019-03-25T16:49:37.919Z,5.70
2019-03-25T16:52:06.166Z,4.50
2019-03-25T16:54:34.435Z,6.37
2019-03-25T16:57:02.702Z,6.03
2019-03-25T16:59:30.956Z,5.83
2019-03-25T17:01:59.219Z,4.53
2019-03-25T17:04:33.690Z,3.33
2019-03-25T17:07:02.287Z,7.23
2019-03-25T17:09:30.535Z,7.73
2019-03-25T17:11:59.581Z,6.67
2019-03-25T17:14:27.826Z,5.13
2019-03-25T17:16:56.062Z,4.83
2019-03-25T17:19:24.340Z,2.67
2019-03-25T17:21:57.936Z,4.90
2019-03-25T17:24:22.564Z,5.17
2019-03-25T17:26:50.819Z,5.37
2019-03-25T17:29:19.067Z,5.90
2019-03-25T17:31:47.341Z,5.73
2019-03-25T17:34:15.881Z,5.57
2019-03-25T17:36:44.162Z,8.93
2019-03-25T17:39:12.402Z,3.13
2019-03-25T17:41:40.747Z,10.40
2019-03-25T17:44:08.986Z,5.67
2019-03-25T17:46:37.310Z,5.00
2019-03-25T17:49:05.637Z,13.70
2019-03-25T17:51:33.930Z,7.13
2019-03-25T17:54:02.247Z,11.07
2019-03-25T17:56:30.969Z,5.20
2019-03-25T17:58:59.238Z,5.27
2019-03-25T18:01:32.405Z,9.77
2019-03-25T18:03:59.697Z,9.33
2019-03-25T18:06:28.121Z,13.37
2019-03-25T18:08:56.457Z,22.33
2019-03-25T18:11:24.878Z,12.90
2019-03-25T18:13:53.184Z,4.90
2019-03-25T18:16:21.535Z,4.73
2019-03-25T18:18:49.986Z,5.77
2019-03-25T18:21:18.299Z,5.40
2019-03-25T18:23:46.677Z,3.93
2019-03-25T18:26:15.080Z,5.50
2019-03-25T18:28:43.453Z,3.73
2019-03-25T18:31:11.678Z,4.10
2019-03-25T18:33:39.983Z,5.93
2019-03-25T18:36:08.237Z,3.73
2019-03-25T18:38:36.498Z,4.13
2019-03-25T18:41:04.761Z,4.57
2019-03-25T18:43:33.001Z,5.10
2019-03-25T18:46:01.245Z,3.73
2019-03-25T18:48:29.530Z,3.03
2019-03-25T18:50:57.788Z,2.67
2019-03-25T18:53:26.016Z,9.70
2019-03-25T18:55:54.380Z,4.73
2019-03-25T18:58:22.773Z,4.27
2019-03-25T19:00:51.159Z,5.80
2019-03-25T19:03:19.604Z,6.63
2019-03-25T19:05:51.843Z,22.57
2019-03-25T19:08:20.243Z,25.60
2019-03-25T19:10:48.944Z,11.13
2019-03-25T19:13:22.187Z,2.23
2019-03-25T19:15:50.558Z,16.60
2019-03-25T19:18:19.253Z,4.80
2019-03-25T19:21:06.969Z,4.00
2019-03-25T19:23:29.887Z,4.90
2019-03-25T19:26:03.089Z,3.57
2019-03-25T19:28:31.387Z,7.07
2019-03-25T19:31:00.530Z,5.57
2019-03-25T19:33:29.219Z,8.57
2019-03-25T19:35:59.235Z,4.10
2019-03-25T19:38:27.668Z,5.63
2019-03-25T19:40:55.998Z,23.07
2019-03-25T19:43:24.258Z,14.10
2019-03-25T19:45:52.811Z,5.40
2019-03-25T19:48:21.899Z,3.93
2019-03-25T19:50:50.168Z,7.13
2019-03-25T19:53:19.600Z,5.07
2019-03-25T19:55:48.113Z,10.23
2019-03-25T19:58:16.421Z,10.53
2019-03-25T20:00:44.938Z,8.93
2019-03-25T20:03:14.993Z,7.87
2019-03-25T20:05:43.666Z,4.93
2019-03-25T20:08:12.588Z,6.47
2019-03-25T20:10:40.889Z,4.77
2019-03-25T20:13:09.592Z,5.03
2019-03-25T20:15:46.139Z,5.13
2019-03-25T20:18:07.892Z,6.90
2019-03-25T20:20:36.151Z,10.33
2019-03-25T20:23:04.449Z,6.93
2019-03-25T20:25:32.736Z,6.17
2019-03-25T20:28:01.056Z,6.57
2019-03-25T20:30:29.332Z,6.00
2019-03-25T20:32:57.611Z,6.53
2019-03-25T20:35:25.828Z,6.00
2019-03-25T20:37:54.552Z,7.67
2019-03-25T20:40:22.851Z,7.53
2019-03-25T20:42:51.215Z,6.30
2019-03-25T20:45:19.558Z,6.53
2019-03-25T20:47:47.836Z,8.67
2019-03-25T20:50:16.185Z,9.40
2019-03-25T20:52:44.454Z,6.90
2019-03-25T20:55:12.699Z,10.43
2019-03-25T20:57:40.944Z,7.53
2019-03-25T21:00:09.844Z,11.63
2019-03-25T21:02:44.803Z,6.83
2019-03-25T21:05:08.057Z,12.07
2019-03-25T21:07:36.376Z,13.63
2019-03-25T21:10:06.814Z,14.07
2019-03-25T21:12:35.080Z,12.70
2019-03-25T21:15:08.446Z,10.67
2019-03-25T21:17:37.133Z,6.40
2019-03-25T21:20:07.054Z,14.47
2019-03-25T21:22:35.695Z,24.53
2019-03-25T21:25:05.935Z,8.83
2019-03-25T21:27:34.221Z,8.33
2019-03-25T21:30:02.469Z,8.83
2019-03-25T21:32:30.775Z,9.20
2019-03-25T21:34:59.117Z,7.43
2019-03-25T21:37:27.452Z,9.27
2019-03-25T21:40:11.640Z,9.23
2019-03-25T21:42:40.024Z,8.07
2019-03-25T21:45:08.369Z,6.13
2019-03-25T21:47:36.649Z,9.00
2019-03-25T21:50:05.929Z,7.33
2019-03-25T21:52:35.199Z,9.47
2019-03-25T21:55:04.259Z,7.97
2019-03-25T21:57:33.035Z,5.03
2019-03-25T22:00:02.901Z,10.63
2019-03-25T22:02:41.140Z,5.70
2019-03-25T22:05:10.210Z,6.17
2019-03-25T22:07:44.985Z,12.43
2019-03-25T22:10:13.621Z,15.40
2019-03-25T22:12:48.059Z,7.80
2019-03-25T22:15:16.669Z,11.10
2019-03-25T22:17:45.955Z,9.10
2019-03-25T22:20:15.253Z,14.77
2019-03-25T22:22:46.545Z,13.37
2019-03-25T22:25:16.908Z,10.10
2019-03-25T22:27:45.155Z,12.97
2019-03-25T22:30:17.043Z,16.87
2019-03-25T22:32:50.391Z,17.80
2019-03-25T22:35:20.555Z,21.55
2019-03-25T22:38:00.503Z,18.87
2019-03-25T22:40:35.797Z,13.07
2019-03-25T22:43:17.240Z,17.40
2019-03-25T22:45:45.483Z,13.47
2019-03-25T22:48:16.725Z,19.93
2019-03-25T22:50:46.604Z,16.23
2019-03-25T22:53:16.481Z,16.90
2019-03-25T22:55:55.154Z,21.77
2019-03-25T22:58:26.052Z,22.60
2019-03-25T23:00:54.289Z,22.27
2019-03-25T23:03:22.662Z,24.67
2019-03-25T23:05:50.936Z,28.40
2019-03-25T23:08:19.175Z,18.77
2019-03-25T23:10:47.479Z,26.70
2019-03-25T23:13:15.716Z,27.10
2019-03-25T23:15:43.963Z,33.10
2019-03-25T23:18:12.299Z,19.17
2019-03-25T23:20:45.211Z,23.37
2019-03-25T23:23:13.451Z,18.30
2019-03-25T23:25:41.867Z,33.17
2019-03-25T23:28:10.134Z,26.60
2019-03-25T23:30:38.366Z,27.97
2019-03-25T23:33:06.771Z,24.97
2019-03-25T23:35:35.004Z,13.07
2019-03-25T23:38:03.303Z,24.13
2019-03-25T23:40:31.683Z,24.53
2019-03-25T23:42:59.938Z,24.03
2019-03-25T23:45:28.821Z,20.57
2019-03-25T23:47:57.086Z,20.53
2019-03-25T23:50:25.319Z,24.87
2019-03-25T23:52:53.559Z,18.73
2019-03-25T23:55:21.911Z,24.93
2019-03-25T23:57:50.157Z,18.07
